sensor_id;sensor_type;location;lat;lon;timestamp;P1;durP1;ratioP1;P2;durP2;ratioP2
48727;SDS011;34527;45.618;5.130;2022-12-13T00:01:30;85.72;;;40.28;;
48727;SDS011;34527;45.618;5.130;2022-12-13T00:03:57;88.45;;;41.78;;
48727;SDS011;34527;45.618;5.130;2022-12-13T00:06:25;98.88;;;43.35;;
48727;SDS011;34527;45.618;5.130;2022-12-13T00:08:52;88.60;;;42.08;;
48727;SDS011;34527;45.618;5.130;2022-12-13T00:11:18;87.25;;;42.38;;
48727;SDS011;34527;45.618;5.130;2022-12-13T00:13:43;87.40;;;41.15;;
48727;SDS011;34527;45.618;5.130;2022-12-13T00:16:12;92.85;;;45.22;;
48727;SDS011;34527;45.618;5.130;2022-12-13T00:18:40;83.07;;;39.90;;
48727;SDS011;34527;45.618;5.130;2022-12-13T00:21:07;93.80;;;42.50;;
48727;SDS011;34527;45.618;5.130;2022-12-13T00:23:35;97.88;;;43.40;;
48727;SDS011;34527;45.618;5.130;2022-12-13T00:26:04;88.22;;;43.20;;
48727;SDS011;34527;45.618;5.130;2022-12-13T00:28:32;99.00;;;43.65;;
48727;SDS011;34527;45.618;5.130;2022-12-13T00:30:59;93.85;;;43.35;;
48727;SDS011;34527;45.618;5.130;2022-12-13T00:33:26;94.72;;;42.35;;
48727;SDS011;34527;45.618;5.130;2022-12-13T00:35:53;98.05;;;45.10;;
48727;SDS011;34527;45.618;5.130;2022-12-13T00:38:19;95.97;;;43.30;;
48727;SDS011;34527;45.618;5.130;2022-12-13T00:40:44;90.82;;;44.17;;
48727;SDS011;34527;45.618;5.130;2022-12-13T00:43:11;96.45;;;44.92;;
48727;SDS011;34527;45.618;5.130;2022-12-13T00:45:37;95.63;;;43.63;;
48727;SDS011;34527;45.618;5.130;2022-12-13T00:48:03;89.78;;;43.03;;
48727;SDS011;34527;45.618;5.130;2022-12-13T00:50:30;83.32;;;40.17;;
48727;SDS011;34527;45.618;5.130;2022-12-13T00:52:57;84.97;;;41.25;;
48727;SDS011;34527;45.618;5.130;2022-12-13T00:55:23;84.07;;;40.30;;
48727;SDS011;34527;45.618;5.130;2022-12-13T00:57:50;82.85;;;39.45;;
48727;SDS011;34527;45.618;5.130;2022-12-13T01:00:16;86.30;;;40.58;;
48727;SDS011;34527;45.618;5.130;2022-12-13T01:02:42;77.78;;;37.28;;
48727;SDS011;34527;45.618;5.130;2022-12-13T01:05:08;81.93;;;37.33;;
48727;SDS011;34527;45.618;5.130;2022-12-13T01:07:35;84.22;;;39.60;;
48727;SDS011;34527;45.618;5.130;2022-12-13T01:10:01;79.68;;;36.63;;
48727;SDS011;34527;45.618;5.130;2022-12-13T01:12:28;88.88;;;38.58;;
48727;SDS011;34527;45.618;5.130;2022-12-13T01:14:54;68.82;;;33.58;;
48727;SDS011;34527;45.618;5.130;2022-12-13T01:17:20;73.25;;;35.38;;
48727;SDS011;34527;45.618;5.130;2022-12-13T01:19:46;69.28;;;33.85;;
48727;SDS011;34527;45.618;5.130;2022-12-13T01:22:12;68.93;;;32.78;;
48727;SDS011;34527;45.618;5.130;2022-12-13T01:24:38;66.82;;;31.85;;
48727;SDS011;34527;45.618;5.130;2022-12-13T01:27:04;66.85;;;30.80;;
48727;SDS011;34527;45.618;5.130;2022-12-13T01:29:30;70.28;;;34.63;;
48727;SDS011;34527;45.618;5.130;2022-12-13T01:31:55;67.00;;;33.60;;
48727;SDS011;34527;45.618;5.130;2022-12-13T01:34:21;58.20;;;31.00;;
48727;SDS011;34527;45.618;5.130;2022-12-13T01:36:48;66.95;;;33.42;;
48727;SDS011;34527;45.618;5.130;2022-12-13T01:39:15;69.07;;;32.90;;
48727;SDS011;34527;45.618;5.130;2022-12-13T01:41:47;60.90;;;31.83;;
48727;SDS011;34527;45.618;5.130;2022-12-13T01:47:18;58.17;;;29.77;;
48727;SDS011;34527;45.618;5.130;2022-12-13T01:49:54;61.88;;;29.90;;
48727;SDS011;34527;45.618;5.130;2022-12-13T01:52:24;58.60;;;29.20;;
48727;SDS011;34527;45.618;5.130;2022-12-13T01:54:54;60.40;;;28.60;;
48727;SDS011;34527;45.618;5.130;2022-12-13T01:57:22;58.00;;;29.42;;
48727;SDS011;34527;45.618;5.130;2022-12-13T01:59:49;51.85;;;28.15;;
48727;SDS011;34527;45.618;5.130;2022-12-13T02:02:15;52.78;;;27.05;;
48727;SDS011;34527;45.618;5.130;2022-12-13T02:07:45;55.85;;;27.00;;
48727;SDS011;34527;45.618;5.130;2022-12-13T02:10:12;58.50;;;28.35;;
48727;SDS011;34527;45.618;5.130;2022-12-13T02:12:38;57.13;;;28.75;;
48727;SDS011;34527;45.618;5.130;2022-12-13T02:15:15;56.53;;;29.70;;
48727;SDS011;34527;45.618;5.130;2022-12-13T02:17:50;54.95;;;28.20;;
48727;SDS011;34527;45.618;5.130;2022-12-13T02:28:42;50.83;;;27.25;;
48727;SDS011;34527;45.618;5.130;2022-12-13T02:34:23;60.10;;;29.02;;
48727;SDS011;34527;45.618;5.130;2022-12-13T02:40:04;53.20;;;25.55;;
48727;SDS011;34527;45.618;5.130;2022-12-13T02:42:37;50.15;;;25.65;;
48727;SDS011;34527;45.618;5.130;2022-12-13T02:45:18;50.97;;;26.60;;
48727;SDS011;34527;45.618;5.130;2022-12-13T02:47:51;52.83;;;26.37;;
48727;SDS011;34527;45.618;5.130;2022-12-13T02:50:20;48.78;;;26.25;;
48727;SDS011;34527;45.618;5.130;2022-12-13T02:52:47;53.42;;;26.55;;
48727;SDS011;34527;45.618;5.130;2022-12-13T02:55:14;49.65;;;26.88;;
48727;SDS011;34527;45.618;5.130;2022-12-13T02:57:42;45.80;;;24.35;;
48727;SDS011;34527;45.618;5.130;2022-12-13T03:00:13;50.75;;;25.83;;
48727;SDS011;34527;45.618;5.130;2022-12-13T03:08:54;41.10;;;22.13;;
48727;SDS011;34527;45.618;5.130;2022-12-13T03:11:36;41.70;;;21.90;;
48727;SDS011;34527;45.618;5.130;2022-12-13T03:17:35;39.85;;;20.75;;
48727;SDS011;34527;45.618;5.130;2022-12-13T03:20:07;40.67;;;20.73;;
48727;SDS011;34527;45.618;5.130;2022-12-13T03:22:34;38.13;;;20.75;;
48727;SDS011;34527;45.618;5.130;2022-12-13T03:24:59;39.33;;;20.58;;
48727;SDS011;34527;45.618;5.130;2022-12-13T03:27:25;36.78;;;21.20;;
48727;SDS011;34527;45.618;5.130;2022-12-13T03:29:51;44.13;;;22.92;;
48727;SDS011;34527;45.618;5.130;2022-12-13T03:32:17;43.67;;;22.45;;
48727;SDS011;34527;45.618;5.130;2022-12-13T03:34:43;39.45;;;21.88;;
48727;SDS011;34527;45.618;5.130;2022-12-13T03:37:09;40.15;;;21.85;;
48727;SDS011;34527;45.618;5.130;2022-12-13T03:39:35;35.85;;;20.42;;
48727;SDS011;34527;45.618;5.130;2022-12-13T03:42:01;35.95;;;19.35;;
48727;SDS011;34527;45.618;5.130;2022-12-13T03:44:26;38.35;;;21.35;;
48727;SDS011;34527;45.618;5.130;2022-12-13T03:46:52;39.92;;;21.35;;
48727;SDS011;34527;45.618;5.130;2022-12-13T03:49:18;37.53;;;19.92;;
48727;SDS011;34527;45.618;5.130;2022-12-13T03:51:44;38.45;;;20.65;;
48727;SDS011;34527;45.618;5.130;2022-12-13T03:54:10;36.15;;;19.77;;
48727;SDS011;34527;45.618;5.130;2022-12-13T03:56:36;36.85;;;20.33;;
48727;SDS011;34527;45.618;5.130;2022-12-13T03:59:02;36.80;;;19.77;;
48727;SDS011;34527;45.618;5.130;2022-12-13T04:01:27;33.47;;;19.00;;
48727;SDS011;34527;45.618;5.130;2022-12-13T04:03:53;35.75;;;20.50;;
48727;SDS011;34527;45.618;5.130;2022-12-13T04:06:19;34.38;;;18.50;;
48727;SDS011;34527;45.618;5.130;2022-12-13T04:08:45;33.35;;;18.25;;
48727;SDS011;34527;45.618;5.130;2022-12-13T04:11:11;34.17;;;19.17;;
48727;SDS011;34527;45.618;5.130;2022-12-13T04:13:55;37.15;;;20.88;;
48727;SDS011;34527;45.618;5.130;2022-12-13T04:16:21;33.72;;;19.52;;
48727;SDS011;34527;45.618;5.130;2022-12-13T04:18:48;33.55;;;19.20;;
48727;SDS011;34527;45.618;5.130;2022-12-13T04:21:14;33.90;;;18.58;;
48727;SDS011;34527;45.618;5.130;2022-12-13T04:23:39;37.40;;;19.35;;
48727;SDS011;34527;45.618;5.130;2022-12-13T04:26:05;37.65;;;20.50;;
48727;SDS011;34527;45.618;5.130;2022-12-13T04:28:31;37.45;;;20.95;;
48727;SDS011;34527;45.618;5.130;2022-12-13T04:30:57;35.78;;;19.48;;
48727;SDS011;34527;45.618;5.130;2022-12-13T04:33:23;36.28;;;19.77;;
48727;SDS011;34527;45.618;5.130;2022-12-13T04:35:49;33.20;;;19.52;;
48727;SDS011;34527;45.618;5.130;2022-12-13T04:38:15;35.85;;;20.77;;
48727;SDS011;34527;45.618;5.130;2022-12-13T04:40:41;37.08;;;20.48;;
48727;SDS011;34527;45.618;5.130;2022-12-13T04:43:07;33.38;;;18.60;;
48727;SDS011;34527;45.618;5.130;2022-12-13T04:45:33;34.83;;;18.88;;
48727;SDS011;34527;45.618;5.130;2022-12-13T04:47:59;38.60;;;20.75;;
48727;SDS011;34527;45.618;5.130;2022-12-13T04:50:25;32.08;;;17.83;;
48727;SDS011;34527;45.618;5.130;2022-12-13T04:52:50;30.55;;;17.95;;
48727;SDS011;34527;45.618;5.130;2022-12-13T04:55:16;35.78;;;18.42;;
48727;SDS011;34527;45.618;5.130;2022-12-13T04:57:42;29.58;;;17.52;;
48727;SDS011;34527;45.618;5.130;2022-12-13T05:00:09;36.08;;;19.67;;
48727;SDS011;34527;45.618;5.130;2022-12-13T05:02:39;30.77;;;17.80;;
48727;SDS011;34527;45.618;5.130;2022-12-13T05:05:07;33.58;;;18.15;;
48727;SDS011;34527;45.618;5.130;2022-12-13T05:07:33;30.73;;;17.90;;
48727;SDS011;34527;45.618;5.130;2022-12-13T05:10:00;29.83;;;17.35;;
48727;SDS011;34527;45.618;5.130;2022-12-13T05:12:26;28.45;;;17.95;;
48727;SDS011;34527;45.618;5.130;2022-12-13T05:14:52;28.75;;;16.90;;
48727;SDS011;34527;45.618;5.130;2022-12-13T05:17:18;29.20;;;17.52;;
48727;SDS011;34527;45.618;5.130;2022-12-13T05:19:44;27.00;;;16.20;;
48727;SDS011;34527;45.618;5.130;2022-12-13T05:22:10;28.58;;;16.90;;
48727;SDS011;34527;45.618;5.130;2022-12-13T05:24:41;27.25;;;15.35;;
48727;SDS011;34527;45.618;5.130;2022-12-13T05:27:09;26.17;;;15.80;;
48727;SDS011;34527;45.618;5.130;2022-12-13T05:29:36;25.73;;;15.18;;
48727;SDS011;34527;45.618;5.130;2022-12-13T05:32:02;28.75;;;16.45;;
48727;SDS011;34527;45.618;5.130;2022-12-13T05:34:28;28.60;;;16.13;;
48727;SDS011;34527;45.618;5.130;2022-12-13T05:36:54;28.27;;;16.85;;
48727;SDS011;34527;45.618;5.130;2022-12-13T05:39:20;29.70;;;17.02;;
48727;SDS011;34527;45.618;5.130;2022-12-13T05:41:46;28.13;;;15.52;;
48727;SDS011;34527;45.618;5.130;2022-12-13T05:44:12;27.98;;;16.17;;
48727;SDS011;34527;45.618;5.130;2022-12-13T05:46:39;24.20;;;14.45;;
48727;SDS011;34527;45.618;5.130;2022-12-13T05:49:05;25.67;;;14.18;;
48727;SDS011;34527;45.618;5.130;2022-12-13T05:51:31;23.08;;;15.13;;
48727;SDS011;34527;45.618;5.130;2022-12-13T05:53:57;26.45;;;14.55;;
48727;SDS011;34527;45.618;5.130;2022-12-13T05:56:23;24.92;;;14.95;;
48727;SDS011;34527;45.618;5.130;2022-12-13T05:58:49;27.90;;;16.85;;
48727;SDS011;34527;45.618;5.130;2022-12-13T06:01:15;23.33;;;14.85;;
48727;SDS011;34527;45.618;5.130;2022-12-13T06:03:41;21.10;;;13.93;;
48727;SDS011;34527;45.618;5.130;2022-12-13T06:06:08;27.05;;;15.02;;
48727;SDS011;34527;45.618;5.130;2022-12-13T06:08:36;23.60;;;15.45;;
48727;SDS011;34527;45.618;5.130;2022-12-13T06:11:02;26.25;;;14.95;;
48727;SDS011;34527;45.618;5.130;2022-12-13T06:13:29;27.13;;;16.30;;
48727;SDS011;34527;45.618;5.130;2022-12-13T06:15:59;25.98;;;15.05;;
48727;SDS011;34527;45.618;5.130;2022-12-13T06:18:30;24.35;;;14.77;;
48727;SDS011;34527;45.618;5.130;2022-12-13T06:21:01;25.08;;;14.95;;
48727;SDS011;34527;45.618;5.130;2022-12-13T06:23:30;24.30;;;14.65;;
48727;SDS011;34527;45.618;5.130;2022-12-13T06:25:57;27.90;;;15.82;;
48727;SDS011;34527;45.618;5.130;2022-12-13T06:28:26;24.80;;;14.93;;
48727;SDS011;34527;45.618;5.130;2022-12-13T06:30:51;25.10;;;15.38;;
48727;SDS011;34527;45.618;5.130;2022-12-13T06:33:18;27.48;;;15.60;;
48727;SDS011;34527;45.618;5.130;2022-12-13T06:35:44;24.10;;;14.93;;
48727;SDS011;34527;45.618;5.130;2022-12-13T06:38:11;29.27;;;16.45;;
48727;SDS011;34527;45.618;5.130;2022-12-13T06:40:37;27.70;;;16.38;;
48727;SDS011;34527;45.618;5.130;2022-12-13T06:43:04;27.60;;;16.10;;
48727;SDS011;34527;45.618;5.130;2022-12-13T06:45:30;27.88;;;15.73;;
48727;SDS011;34527;45.618;5.130;2022-12-13T06:47:56;29.55;;;16.73;;
48727;SDS011;34527;45.618;5.130;2022-12-13T06:50:23;26.85;;;16.00;;
48727;SDS011;34527;45.618;5.130;2022-12-13T06:52:49;23.33;;;14.90;;
48727;SDS011;34527;45.618;5.130;2022-12-13T06:55:14;23.90;;;14.65;;
48727;SDS011;34527;45.618;5.130;2022-12-13T06:57:41;26.80;;;15.55;;
48727;SDS011;34527;45.618;5.130;2022-12-13T07:00:09;27.38;;;16.58;;
48727;SDS011;34527;45.618;5.130;2022-12-13T07:02:35;27.15;;;17.45;;
48727;SDS011;34527;45.618;5.130;2022-12-13T07:05:04;26.95;;;16.60;;
48727;SDS011;34527;45.618;5.130;2022-12-13T07:07:31;25.55;;;15.43;;
48727;SDS011;34527;45.618;5.130;2022-12-13T07:09:57;26.55;;;14.90;;
48727;SDS011;34527;45.618;5.130;2022-12-13T07:12:22;24.50;;;14.45;;
48727;SDS011;34527;45.618;5.130;2022-12-13T07:14:48;26.88;;;15.35;;
48727;SDS011;34527;45.618;5.130;2022-12-13T07:17:14;27.40;;;16.05;;
48727;SDS011;34527;45.618;5.130;2022-12-13T07:19:40;27.48;;;15.57;;
48727;SDS011;34527;45.618;5.130;2022-12-13T07:22:06;31.10;;;17.15;;
48727;SDS011;34527;45.618;5.130;2022-12-13T07:24:35;29.02;;;16.20;;
48727;SDS011;34527;45.618;5.130;2022-12-13T07:27:01;29.15;;;18.92;;
48727;SDS011;34527;45.618;5.130;2022-12-13T07:29:27;26.92;;;16.20;;
48727;SDS011;34527;45.618;5.130;2022-12-13T07:31:53;27.42;;;16.25;;
48727;SDS011;34527;45.618;5.130;2022-12-13T07:34:19;25.38;;;15.75;;
48727;SDS011;34527;45.618;5.130;2022-12-13T07:36:45;32.38;;;20.17;;
48727;SDS011;34527;45.618;5.130;2022-12-13T07:39:13;28.30;;;17.02;;
48727;SDS011;34527;45.618;5.130;2022-12-13T07:41:39;41.22;;;20.35;;
48727;SDS011;34527;45.618;5.130;2022-12-13T07:44:05;32.38;;;19.38;;
48727;SDS011;34527;45.618;5.130;2022-12-13T07:46:30;29.77;;;18.15;;
48727;SDS011;34527;45.618;5.130;2022-12-13T07:48:56;25.42;;;16.65;;
48727;SDS011;34527;45.618;5.130;2022-12-13T07:51:22;30.73;;;18.13;;
48727;SDS011;34527;45.618;5.130;2022-12-13T07:53:48;29.27;;;16.65;;
48727;SDS011;34527;45.618;5.130;2022-12-13T07:56:14;29.73;;;17.10;;
48727;SDS011;34527;45.618;5.130;2022-12-13T07:58:41;30.40;;;17.10;;
48727;SDS011;34527;45.618;5.130;2022-12-13T08:01:08;35.55;;;19.52;;
48727;SDS011;34527;45.618;5.130;2022-12-13T08:03:36;32.40;;;18.58;;
48727;SDS011;34527;45.618;5.130;2022-12-13T08:06:03;29.40;;;16.25;;
48727;SDS011;34527;45.618;5.130;2022-12-13T08:08:36;31.40;;;17.92;;
48727;SDS011;34527;45.618;5.130;2022-12-13T08:11:06;30.27;;;17.02;;
48727;SDS011;34527;45.618;5.130;2022-12-13T08:13:34;27.05;;;16.13;;
48727;SDS011;34527;45.618;5.130;2022-12-13T08:16:01;27.95;;;15.68;;
48727;SDS011;34527;45.618;5.130;2022-12-13T08:18:28;25.15;;;15.82;;
48727;SDS011;34527;45.618;5.130;2022-12-13T08:21:01;25.77;;;15.35;;
48727;SDS011;34527;45.618;5.130;2022-12-13T08:23:29;26.33;;;16.00;;
48727;SDS011;34527;45.618;5.130;2022-12-13T08:25:57;27.67;;;16.27;;
48727;SDS011;34527;45.618;5.130;2022-12-13T08:28:23;25.10;;;16.00;;
48727;SDS011;34527;45.618;5.130;2022-12-13T08:30:50;23.52;;;15.15;;
48727;SDS011;34527;45.618;5.130;2022-12-13T08:33:16;22.83;;;14.27;;
48727;SDS011;34527;45.618;5.130;2022-12-13T08:35:43;22.83;;;14.57;;
48727;SDS011;34527;45.618;5.130;2022-12-13T08:38:09;26.77;;;15.27;;
48727;SDS011;34527;45.618;5.130;2022-12-13T08:40:35;22.38;;;14.23;;
48727;SDS011;34527;45.618;5.130;2022-12-13T08:43:02;27.60;;;16.33;;
48727;SDS011;34527;45.618;5.130;2022-12-13T08:45:29;27.55;;;15.90;;
48727;SDS011;34527;45.618;5.130;2022-12-13T08:47:56;29.38;;;17.13;;
48727;SDS011;34527;45.618;5.130;2022-12-13T08:50:23;29.00;;;16.35;;
48727;SDS011;34527;45.618;5.130;2022-12-13T08:52:50;27.50;;;16.38;;
48727;SDS011;34527;45.618;5.130;2022-12-13T08:55:16;30.33;;;17.15;;
48727;SDS011;34527;45.618;5.130;2022-12-13T08:57:42;35.28;;;19.35;;
48727;SDS011;34527;45.618;5.130;2022-12-13T09:00:12;28.25;;;17.48;;
48727;SDS011;34527;45.618;5.130;2022-12-13T09:02:40;26.25;;;15.90;;
48727;SDS011;34527;45.618;5.130;2022-12-13T09:05:07;25.92;;;15.88;;
48727;SDS011;34527;45.618;5.130;2022-12-13T09:07:34;29.92;;;17.70;;
48727;SDS011;34527;45.618;5.130;2022-12-13T09:10:01;26.80;;;16.85;;
48727;SDS011;34527;45.618;5.130;2022-12-13T09:12:28;31.30;;;17.50;;
48727;SDS011;34527;45.618;5.130;2022-12-13T09:14:54;29.58;;;17.88;;
48727;SDS011;34527;45.618;5.130;2022-12-13T09:17:20;30.45;;;18.38;;
48727;SDS011;34527;45.618;5.130;2022-12-13T09:19:46;35.10;;;20.00;;
48727;SDS011;34527;45.618;5.130;2022-12-13T09:22:11;30.30;;;18.30;;
48727;SDS011;34527;45.618;5.130;2022-12-13T09:24:37;30.83;;;18.98;;
48727;SDS011;34527;45.618;5.130;2022-12-13T09:27:04;33.10;;;18.88;;
48727;SDS011;34527;45.618;5.130;2022-12-13T09:29:31;34.17;;;20.13;;
48727;SDS011;34527;45.618;5.130;2022-12-13T09:31:59;34.38;;;21.27;;
48727;SDS011;34527;45.618;5.130;2022-12-13T09:34:25;35.20;;;21.35;;
48727;SDS011;34527;45.618;5.130;2022-12-13T09:36:51;32.60;;;19.88;;
48727;SDS011;34527;45.618;5.130;2022-12-13T09:39:17;32.30;;;19.30;;
48727;SDS011;34527;45.618;5.130;2022-12-13T09:41:44;29.75;;;19.20;;
48727;SDS011;34527;45.618;5.130;2022-12-13T09:46:48;33.55;;;19.90;;
48727;SDS011;34527;45.618;5.130;2022-12-13T09:51:47;31.90;;;18.88;;
48727;SDS011;34527;45.618;5.130;2022-12-13T09:54:21;30.98;;;20.08;;
48727;SDS011;34527;45.618;5.130;2022-12-13T09:56:48;29.80;;;18.13;;
48727;SDS011;34527;45.618;5.130;2022-12-13T09:59:28;35.35;;;21.30;;
48727;SDS011;34527;45.618;5.130;2022-12-13T10:02:01;32.22;;;19.33;;
48727;SDS011;34527;45.618;5.130;2022-12-13T10:04:36;30.75;;;19.95;;
48727;SDS011;34527;45.618;5.130;2022-12-13T10:07:04;31.27;;;19.10;;
48727;SDS011;34527;45.618;5.130;2022-12-13T10:09:36;34.47;;;20.30;;
48727;SDS011;34527;45.618;5.130;2022-12-13T10:12:02;30.23;;;19.13;;
48727;SDS011;34527;45.618;5.130;2022-12-13T10:14:29;33.42;;;20.10;;
48727;SDS011;34527;45.618;5.130;2022-12-13T10:17:01;31.02;;;19.95;;
48727;SDS011;34527;45.618;5.130;2022-12-13T10:19:33;29.75;;;18.45;;
48727;SDS011;34527;45.618;5.130;2022-12-13T10:22:04;33.53;;;20.25;;
48727;SDS011;34527;45.618;5.130;2022-12-13T10:24:53;33.38;;;20.80;;
48727;SDS011;34527;45.618;5.130;2022-12-13T10:27:24;33.63;;;20.23;;
48727;SDS011;34527;45.618;5.130;2022-12-13T10:30:06;35.20;;;20.48;;
48727;SDS011;34527;45.618;5.130;2022-12-13T10:32:59;32.53;;;20.55;;
48727;SDS011;34527;45.618;5.130;2022-12-13T10:35:32;33.13;;;20.42;;
48727;SDS011;34527;45.618;5.130;2022-12-13T10:40:34;41.92;;;23.23;;
48727;SDS011;34527;45.618;5.130;2022-12-13T10:43:10;34.03;;;21.90;;
48727;SDS011;34527;45.618;5.130;2022-12-13T10:48:29;38.85;;;22.60;;
48727;SDS011;34527;45.618;5.130;2022-12-13T10:51:08;30.50;;;18.52;;
48727;SDS011;34527;45.618;5.130;2022-12-13T10:53:55;31.55;;;19.20;;
48727;SDS011;34527;45.618;5.130;2022-12-13T10:56:31;30.83;;;18.88;;
48727;SDS011;34527;45.618;5.130;2022-12-13T11:01:56;27.77;;;18.23;;
48727;SDS011;34527;45.618;5.130;2022-12-13T11:07:20;30.60;;;18.03;;
48727;SDS011;34527;45.618;5.130;2022-12-13T11:09:48;32.75;;;18.77;;
48727;SDS011;34527;45.618;5.130;2022-12-13T11:12:15;38.97;;;21.02;;
48727;SDS011;34527;45.618;5.130;2022-12-13T11:14:55;34.42;;;19.67;;
48727;SDS011;34527;45.618;5.130;2022-12-13T11:17:28;34.47;;;20.27;;
48727;SDS011;34527;45.618;5.130;2022-12-13T11:20:03;45.70;;;25.52;;
48727;SDS011;34527;45.618;5.130;2022-12-13T11:22:39;37.80;;;22.58;;
48727;SDS011;34527;45.618;5.130;2022-12-13T11:25:22;43.95;;;26.17;;
48727;SDS011;34527;45.618;5.130;2022-12-13T11:28:03;33.67;;;20.45;;
48727;SDS011;34527;45.618;5.130;2022-12-13T11:30:54;35.47;;;21.65;;
48727;SDS011;34527;45.618;5.130;2022-12-13T11:33:36;35.78;;;20.83;;
48727;SDS011;34527;45.618;5.130;2022-12-13T11:37:27;36.83;;;23.05;;
48727;SDS011;34527;45.618;5.130;2022-12-13T11:47:25;35.97;;;20.92;;
48727;SDS011;34527;45.618;5.130;2022-12-13T11:50:05;36.22;;;20.92;;
48727;SDS011;34527;45.618;5.130;2022-12-13T11:52:46;34.33;;;20.02;;
48727;SDS011;34527;45.618;5.130;2022-12-13T11:55:35;34.75;;;21.08;;
48727;SDS011;34527;45.618;5.130;2022-12-13T12:00:53;39.58;;;23.77;;
48727;SDS011;34527;45.618;5.130;2022-12-13T12:03:35;38.58;;;23.10;;
48727;SDS011;34527;45.618;5.130;2022-12-13T12:06:25;42.53;;;25.73;;
48727;SDS011;34527;45.618;5.130;2022-12-13T12:09:00;35.72;;;20.75;;
48727;SDS011;34527;45.618;5.130;2022-12-13T12:11:32;33.72;;;21.33;;
48727;SDS011;34527;45.618;5.130;2022-12-13T12:16:42;38.78;;;25.25;;
48727;SDS011;34527;45.618;5.130;2022-12-13T12:19:21;48.78;;;29.33;;
48727;SDS011;34527;45.618;5.130;2022-12-13T12:24:47;42.15;;;26.00;;
48727;SDS011;34527;45.618;5.130;2022-12-13T12:41:17;37.15;;;22.67;;
48727;SDS011;34527;45.618;5.130;2022-12-13T12:44:00;36.58;;;22.90;;
48727;SDS011;34527;45.618;5.130;2022-12-13T12:46:54;31.58;;;21.10;;
48727;SDS011;34527;45.618;5.130;2022-12-13T12:58:25;40.40;;;25.27;;
48727;SDS011;34527;45.618;5.130;2022-12-13T13:00:56;37.40;;;24.08;;
48727;SDS011;34527;45.618;5.130;2022-12-13T13:03:23;38.58;;;23.80;;
48727;SDS011;34527;45.618;5.130;2022-12-13T13:08:27;32.95;;;20.65;;
48727;SDS011;34527;45.618;5.130;2022-12-13T13:11:15;34.97;;;21.70;;
48727;SDS011;34527;45.618;5.130;2022-12-13T13:13:43;34.63;;;21.38;;
48727;SDS011;34527;45.618;5.130;2022-12-13T13:16:58;32.10;;;20.58;;
48727;SDS011;34527;45.618;5.130;2022-12-13T13:21:43;35.42;;;22.65;;
48727;SDS011;34527;45.618;5.130;2022-12-13T13:26:51;35.67;;;22.25;;
48727;SDS011;34527;45.618;5.130;2022-12-13T13:29:43;32.33;;;20.60;;
48727;SDS011;34527;45.618;5.130;2022-12-13T13:34:36;31.48;;;20.80;;
48727;SDS011;34527;45.618;5.130;2022-12-13T13:42:18;30.27;;;20.38;;
48727;SDS011;34527;45.618;5.130;2022-12-13T13:47:14;32.60;;;21.00;;
48727;SDS011;34527;45.618;5.130;2022-12-13T14:25:53;23.42;;;16.67;;
48727;SDS011;34527;45.618;5.130;2022-12-13T14:30:58;27.67;;;17.25;;
48727;SDS011;34527;45.618;5.130;2022-12-13T14:33:24;31.92;;;21.95;;
48727;SDS011;34527;45.618;5.130;2022-12-13T14:35:54;32.28;;;21.80;;
48727;SDS011;34527;45.618;5.130;2022-12-13T14:38:25;28.98;;;19.33;;
48727;SDS011;34527;45.618;5.130;2022-12-13T14:40:57;32.00;;;20.20;;
48727;SDS011;34527;45.618;5.130;2022-12-13T14:43:25;28.60;;;19.40;;
48727;SDS011;34527;45.618;5.130;2022-12-13T14:45:59;28.90;;;17.77;;
48727;SDS011;34527;45.618;5.130;2022-12-13T14:48:51;28.27;;;17.02;;
48727;SDS011;34527;45.618;5.130;2022-12-13T14:51:33;28.23;;;17.65;;
48727;SDS011;34527;45.618;5.130;2022-12-13T14:54:15;32.33;;;18.98;;
48727;SDS011;34527;45.618;5.130;2022-12-13T14:56:59;31.55;;;19.13;;
48727;SDS011;34527;45.618;5.130;2022-12-13T14:59:26;31.80;;;19.20;;
48727;SDS011;34527;45.618;5.130;2022-12-13T15:01:58;29.15;;;18.95;;
48727;SDS011;34527;45.618;5.130;2022-12-13T15:04:31;47.85;;;29.52;;
48727;SDS011;34527;45.618;5.130;2022-12-13T15:07:03;32.00;;;20.63;;
48727;SDS011;34527;45.618;5.130;2022-12-13T15:09:39;29.30;;;19.58;;
48727;SDS011;34527;45.618;5.130;2022-12-13T15:12:10;33.45;;;20.95;;
48727;SDS011;34527;45.618;5.130;2022-12-13T15:14:40;32.58;;;19.30;;
48727;SDS011;34527;45.618;5.130;2022-12-13T15:20:26;26.80;;;18.35;;
48727;SDS011;34527;45.618;5.130;2022-12-13T15:22:56;33.28;;;20.17;;
48727;SDS011;34527;45.618;5.130;2022-12-13T15:25:31;30.80;;;20.30;;
48727;SDS011;34527;45.618;5.130;2022-12-13T15:27:59;28.52;;;19.45;;
48727;SDS011;34527;45.618;5.130;2022-12-13T15:30:25;28.90;;;18.60;;
48727;SDS011;34527;45.618;5.130;2022-12-13T15:35:43;29.30;;;18.88;;
48727;SDS011;34527;45.618;5.130;2022-12-13T15:38:11;30.48;;;18.42;;
48727;SDS011;34527;45.618;5.130;2022-12-13T15:40:48;30.30;;;18.88;;
48727;SDS011;34527;45.618;5.130;2022-12-13T15:43:19;27.35;;;17.58;;
48727;SDS011;34527;45.618;5.130;2022-12-13T15:45:47;27.60;;;16.55;;
48727;SDS011;34527;45.618;5.130;2022-12-13T15:50:44;22.55;;;15.93;;
48727;SDS011;34527;45.618;5.130;2022-12-13T15:53:20;25.63;;;17.02;;
48727;SDS011;34527;45.618;5.130;2022-12-13T15:55:50;32.53;;;19.17;;
48727;SDS011;34527;45.618;5.130;2022-12-13T15:58:24;30.67;;;19.30;;
48727;SDS011;34527;45.618;5.130;2022-12-13T16:00:54;35.03;;;20.95;;
48727;SDS011;34527;45.618;5.130;2022-12-13T16:03:21;34.75;;;19.92;;
48727;SDS011;34527;45.618;5.130;2022-12-13T16:05:50;30.15;;;19.75;;
48727;SDS011;34527;45.618;5.130;2022-12-13T16:10:48;31.55;;;20.75;;
48727;SDS011;34527;45.618;5.130;2022-12-13T16:13:22;28.38;;;17.98;;
48727;SDS011;34527;45.618;5.130;2022-12-13T16:15:50;31.98;;;20.65;;
48727;SDS011;34527;45.618;5.130;2022-12-13T16:18:19;31.15;;;20.13;;
48727;SDS011;34527;45.618;5.130;2022-12-13T16:20:47;29.30;;;18.92;;
48727;SDS011;34527;45.618;5.130;2022-12-13T16:23:14;30.80;;;19.00;;
48727;SDS011;34527;45.618;5.130;2022-12-13T16:25:40;32.10;;;19.70;;
48727;SDS011;34527;45.618;5.130;2022-12-13T16:28:08;39.97;;;22.02;;
48727;SDS011;34527;45.618;5.130;2022-12-13T16:33:24;34.30;;;21.98;;
48727;SDS011;34527;45.618;5.130;2022-12-13T16:35:50;32.25;;;20.75;;
48727;SDS011;34527;45.618;5.130;2022-12-13T16:38:17;51.55;;;30.13;;
48727;SDS011;34527;45.618;5.130;2022-12-13T16:40:43;39.65;;;25.25;;
48727;SDS011;34527;45.618;5.130;2022-12-13T16:43:19;37.17;;;22.73;;
48727;SDS011;34527;45.618;5.130;2022-12-13T16:45:48;34.63;;;22.08;;
48727;SDS011;34527;45.618;5.130;2022-12-13T16:48:15;34.90;;;23.35;;
48727;SDS011;34527;45.618;5.130;2022-12-13T16:50:45;37.35;;;24.88;;
48727;SDS011;34527;45.618;5.130;2022-12-13T16:53:12;41.55;;;26.67;;
48727;SDS011;34527;45.618;5.130;2022-12-13T16:55:38;40.83;;;25.23;;
48727;SDS011;34527;45.618;5.130;2022-12-13T16:58:06;42.88;;;28.23;;
48727;SDS011;34527;45.618;5.130;2022-12-13T17:00:36;46.67;;;31.33;;
48727;SDS011;34527;45.618;5.130;2022-12-13T17:03:02;48.47;;;31.33;;
48727;SDS011;34527;45.618;5.130;2022-12-13T17:05:29;42.72;;;28.05;;
48727;SDS011;34527;45.618;5.130;2022-12-13T17:07:56;36.58;;;25.85;;
48727;SDS011;34527;45.618;5.130;2022-12-13T17:10:22;33.03;;;23.17;;